Time,TemperatureF,DewpointF,PressureIn,WindDirection,WindDirectionDegrees,WindSpeedMPH,WindSpeedGustMPH,Humidity,HourlyPrecipIn,Conditions,Clouds,dailyrainin,SoftwareType,DateUTC
2013-01-31 00:01:00,60.9,55.3,-100.00,WSW,254,3.4,6.3,82,0.00,,,0.00,WSDL version 423,2013-01-31 05:01:00,
2013-01-31 00:07:00,60.8,55.2,-100.00,North,-999,-999.0,-999.0,82,0.00,,,0.00,WSDL version 423,2013-01-31 05:07:00,
2013-01-31 00:13:00,60.8,55.4,-100.00,North,-999,-999.0,-999.0,82,0.00,,,0.00,WSDL version 423,2013-01-31 05:13:00,
2013-01-31 00:19:00,60.8,55.4,-100.00,North,-999,-999.0,-999.0,83,0.00,,,0.00,WSDL version 423,2013-01-31 05:19:00,
2013-01-31 00:25:00,60.6,55.5,-100.00,North,-999,-999.0,-999.0,83,0.00,,,0.00,WSDL version 423,2013-01-31 05:25:00,
2013-01-31 00:31:00,60.6,55.5,-100.00,North,-999,-999.0,-999.0,83,-99.99,,,-99.99,WSDL version 423,2013-01-31 05:31:00,
2013-01-31 00:37:00,60.6,55.5,-100.00,North,-999,-999.0,-999.0,83,0.04,,,0.04,WSDL version 423,2013-01-31 05:37:00,
2013-01-31 00:43:00,60.6,55.9,-100.00,North,-999,-999.0,-999.0,84,0.04,,,0.04,WSDL version 423,2013-01-31 05:43:00,
2013-01-31 00:49:00,60.5,55.8,-100.00,North,0,0.0,0.0,84,0.08,,,0.08,WSDL version 423,2013-01-31 05:49:00,
2013-01-31 00:55:00,60.4,55.7,-100.00,North,-999,-999.0,-999.0,84,-99.99,,,-99.99,WSDL version 423,2013-01-31 05:55:00,
2013-01-31 01:01:00,60.5,56.2,-100.00,North,-999,-999.0,-999.0,86,0.12,,,0.12,WSDL version 423,2013-01-31 06:01:00,
2013-01-31 01:07:00,60.5,56.2,-100.00,North,-999,-999.0,-999.0,86,0.12,,,0.12,WSDL version 423,2013-01-31 06:07:00,
2013-01-31 01:13:00,60.6,56.3,-100.00,North,-999,-999.0,-999.0,86,0.12,,,0.12,WSDL version 423,2013-01-31 06:13:00,
2013-01-31 01:19:00,60.6,56.3,-100.00,North,-999,-999.0,-999.0,86,0.12,,,0.12,WSDL version 423,2013-01-31 06:19:00,
2013-01-31 01:25:00,60.6,56.3,-100.00,North,-999,-999.0,-999.0,86,0.12,,,0.12,WSDL version 423,2013-01-31 06:25:00,
2013-01-31 01:31:00,60.8,56.6,-100.00,North,-999,-999.0,-999.0,86,0.12,,,0.12,WSDL version 423,2013-01-31 06:31:00,
2013-01-31 01:37:00,60.8,56.6,-100.00,North,-999,-999.0,-999.0,87,0.13,,,0.16,WSDL version 423,2013-01-31 06:37:00,
2013-01-31 01:43:00,60.7,56.7,-100.00,NNW,338,4.3,4.3,87,0.13,,,0.16,WSDL version 423,2013-01-31 06:43:00,
2013-01-31 01:49:00,60.8,57.0,-100.00,North,-999,-999.0,-999.0,87,0.08,,,0.16,WSDL version 423,2013-01-31 06:49:00,
2013-01-31 01:55:00,60.8,56.8,-100.00,North,-999,-999.0,-999.0,87,0.08,,,0.16,WSDL version 423,2013-01-31 06:55:00,
2013-01-31 02:01:00,60.8,56.8,-100.00,North,-999,-999.0,-999.0,87,0.04,,,0.16,WSDL version 423,2013-01-31 07:01:00,
2013-01-31 02:07:00,61.0,57.0,-100.00,SSW,203,6.7,9.8,87,0.04,,,0.16,WSDL version 423,2013-01-31 07:07:00,
2013-01-31 02:13:00,61.1,57.1,-100.00,North,-999,-999.0,-999.0,87,0.08,,,0.20,WSDL version 423,2013-01-31 07:13:00,
2013-01-31 02:19:00,61.2,57.2,-100.00,North,-999,-999.0,-999.0,87,0.08,,,0.20,WSDL version 423,2013-01-31 07:19:00,
2013-01-31 02:25:00,61.0,57.0,-100.00,North,-999,-999.0,-999.0,87,0.08,,,0.20,WSDL version 423,2013-01-31 07:25:00,
2013-01-31 02:31:00,61.2,57.2,-100.00,North,-999,-999.0,-999.0,87,0.08,,,0.20,WSDL version 423,2013-01-31 07:31:00,
2013-01-31 02:37:00,61.2,57.2,-100.00,North,-999,-999.0,-999.0,87,0.04,,,0.20,WSDL version 423,2013-01-31 07:37:00,
2013-01-31 02:43:00,61.3,57.3,-100.00,North,-999,-999.0,-999.0,87,0.04,,,0.20,WSDL version 423,2013-01-31 07:43:00,
2013-01-31 02:49:00,61.3,57.3,-100.00,North,-999,-999.0,-999.0,87,0.04,,,0.20,WSDL version 423,2013-01-31 07:49:00,
2013-01-31 02:55:00,61.3,57.3,-100.00,North,-999,-999.0,-999.0,87,0.04,,,0.20,WSDL version 423,2013-01-31 07:55:00,
2013-01-31 03:01:00,61.3,57.3,-100.00,North,-999,-999.0,-999.0,87,0.04,,,0.20,WSDL version 423,2013-01-31 08:01:00,
2013-01-31 03:07:00,61.2,57.2,-100.00,North,-999,-999.0,-999.0,87,0.08,,,0.25,WSDL version 423,2013-01-31 08:07:00,
2013-01-31 03:13:00,61.2,57.5,-100.00,South,180,3.8,3.8,88,0.04,,,0.25,WSDL version 423,2013-01-31 08:13:00,
2013-01-31 03:19:00,61.1,57.5,-100.00,NNW,345,4.8,13.9,88,0.08,,,0.29,WSDL version 423,2013-01-31 08:19:00,
2013-01-31 03:25:00,61.0,57.3,-100.00,North,-999,-999.0,-999.0,88,0.13,,,0.33,WSDL version 423,2013-01-31 08:25:00,
2013-01-31 03:31:00,61.0,57.3,-100.00,North,-999,-999.0,-999.0,88,0.16,,,0.37,WSDL version 423,2013-01-31 08:31:00,
2013-01-31 03:37:00,61.0,57.4,-100.00,North,-999,-999.0,-999.0,88,-99.99,,,-99.99,WSDL version 423,2013-01-31 08:37:00,
2013-01-31 03:43:00,61.0,57.7,-100.00,SSW,203,4.3,4.9,89,-99.99,,,-99.99,WSDL version 423,2013-01-31 08:43:00,
2013-01-31 03:49:00,61.0,57.7,-100.00,West,270,2.9,5.8,89,-99.99,,,-99.99,WSDL version 423,2013-01-31 08:49:00,
2013-01-31 03:55:00,61.2,58.1,-100.00,SSE,151,6.9,10.7,90,0.25,,,0.45,WSDL version 423,2013-01-31 08:55:00,
2013-01-31 04:01:00,60.4,57.5,-100.00,ESE,122,4.3,17.0,90,-99.99,,,-99.99,WSDL version 423,2013-01-31 09:01:00,
2013-01-31 04:07:00,59.4,56.3,-100.00,North,-999,-999.0,-999.0,89,-99.99,,,-99.99,WSDL version 423,2013-01-31 09:07:00,
2013-01-31 04:13:00,58.9,55.8,-100.00,North,-999,-999.0,-999.0,90,0.50,,,0.74,WSDL version 423,2013-01-31 09:13:00,
2013-01-31 04:21:00,59.0,56.0,-100.00,North,-999,-999.0,-999.0,90,0.50,,,0.79,WSDL version 423,2013-01-31 09:21:00,
2013-01-31 04:27:00,58.8,55.9,-100.00,North,-999,-999.0,-999.0,90,0.46,,,0.79,WSDL version 423,2013-01-31 09:27:00,
2013-01-31 04:33:00,58.8,55.9,-100.00,North,-999,-999.0,-999.0,90,0.42,,,0.79,WSDL version 423,2013-01-31 09:33:00,
2013-01-31 04:39:00,58.8,55.9,-100.00,North,-999,-999.0,-999.0,90,-99.99,,,-99.99,WSDL version 423,2013-01-31 09:39:00,
2013-01-31 04:45:00,58.8,55.8,-100.00,North,-999,-999.0,-999.0,90,0.42,,,0.79,WSDL version 423,2013-01-31 09:45:00,
2013-01-31 04:51:00,58.7,55.7,-100.00,North,-999,-999.0,-999.0,89,0.41,,,0.83,WSDL version 423,2013-01-31 09:51:00,
2013-01-31 04:57:00,58.6,55.4,-100.00,North,-999,-999.0,-999.0,89,0.37,,,0.83,WSDL version 423,2013-01-31 09:57:00,
2013-01-31 05:03:00,58.6,55.3,-100.00,North,-999,-999.0,-999.0,88,-99.99,,,-99.99,WSDL version 423,2013-01-31 10:03:00,
2013-01-31 05:09:00,58.5,54.9,-100.00,North,-999,-999.0,-999.0,88,0.08,,,0.83,WSDL version 423,2013-01-31 10:09:00,
2013-01-31 05:15:00,58.3,54.7,-100.00,North,-999,-999.0,-999.0,88,0.08,,,0.83,WSDL version 423,2013-01-31 10:15:00,
2013-01-31 05:21:00,58.1,54.5,-100.00,North,-999,-999.0,-999.0,87,0.08,,,0.87,WSDL version 423,2013-01-31 10:21:00,
2013-01-31 05:27:00,58.1,54.2,-100.00,North,-999,-999.0,-999.0,87,0.08,,,0.87,WSDL version 423,2013-01-31 10:27:00,
2013-01-31 05:33:00,57.9,54.0,-100.00,North,-999,-999.0,-999.0,87,0.08,,,0.87,WSDL version 423,2013-01-31 10:33:00,
2013-01-31 05:39:00,57.7,53.8,-100.00,North,-999,-999.0,-999.0,87,0.08,,,0.87,WSDL version 423,2013-01-31 10:39:00,
2013-01-31 05:45:00,57.6,53.6,-100.00,North,-999,-999.0,-999.0,87,0.08,,,0.87,WSDL version 423,2013-01-31 10:45:00,
2013-01-31 05:51:00,57.6,53.6,-100.00,North,-999,-999.0,-999.0,87,0.04,,,0.87,WSDL version 423,2013-01-31 10:51:00,
2013-01-31 05:57:00,57.4,53.3,-100.00,North,0,0.0,2.5,86,0.04,,,0.87,WSDL version 423,2013-01-31 10:57:00,
2013-01-31 06:03:00,57.4,53.1,-100.00,North,-999,-999.0,-999.0,86,-99.99,,,-99.99,WSDL version 423,2013-01-31 11:03:00,
2013-01-31 06:09:00,57.5,53.2,-100.00,NW,315,1.6,3.4,86,0.04,,,0.87,WSDL version 423,2013-01-31 11:09:00,
2013-01-31 06:15:00,57.6,53.3,-100.00,SSE,149,3.4,7.8,86,0.04,,,0.87,WSDL version 423,2013-01-31 11:15:00,
2013-01-31 06:21:00,57.5,53.2,-100.00,ESE,113,3.4,9.6,86,0.04,,,0.91,WSDL version 423,2013-01-31 11:21:00,
2013-01-31 06:27:00,57.3,53.0,-100.00,East,99,5.7,12.1,84,-99.99,,,-99.99,WSDL version 423,2013-01-31 11:27:00,
2013-01-31 06:33:00,55.5,50.1,-100.00,ESE,113,7.4,22.8,81,0.04,,,0.91,WSDL version 423,2013-01-31 11:33:00,
2013-01-31 06:39:00,53.5,47.2,-100.00,North,0,0.0,22.8,79,-99.99,,,-99.99,WSDL version 423,2013-01-31 11:39:00,
2013-01-31 06:45:00,52.4,44.3,-100.00,North,-999,-999.0,-999.0,68,0.04,,,0.91,WSDL version 423,2013-01-31 11:45:00,
2013-01-31 06:51:00,51.4,41.6,-100.00,North,-999,-999.0,-999.0,71,0.04,,,0.91,WSDL version 423,2013-01-31 11:51:00,
2013-01-31 06:57:00,50.8,42.0,-100.00,ENE,75,8.8,15.2,72,0.04,,,0.91,WSDL version 423,2013-01-31 11:57:00,
2013-01-31 07:03:00,50.4,40.7,-100.00,ESE,113,6.1,15.2,67,0.04,,,0.91,WSDL version 423,2013-01-31 12:03:00,
2013-01-31 07:09:00,49.8,38.9,-100.00,ESE,113,6.2,14.8,64,0.04,,,0.91,WSDL version 423,2013-01-31 12:09:00,
2013-01-31 07:15:00,49.1,36.8,-100.00,SE,135,4.4,10.7,63,0.04,,,0.91,WSDL version 423,2013-01-31 12:15:00,
2013-01-31 07:21:00,48.7,36.8,-100.00,SE,125,5.0,9.6,63,0.00,,,0.91,WSDL version 423,2013-01-31 12:21:00,
2013-01-31 07:27:00,48.5,36.1,-100.00,SE,143,7.3,10.1,60,0.00,,,0.91,WSDL version 423,2013-01-31 12:27:00,
2013-01-31 07:33:00,48.2,36.0,-100.00,ESE,123,4.3,10.5,62,0.00,,,0.91,WSDL version 423,2013-01-31 12:33:00,
2013-01-31 07:39:00,47.9,34.1,-100.00,ESE,113,5.1,13.0,59,0.00,,,0.91,WSDL version 423,2013-01-31 12:39:00,
2013-01-31 07:45:00,47.7,32.4,-100.00,SE,138,6.6,16.6,57,0.00,,,0.91,WSDL version 423,2013-01-31 12:45:00,
2013-01-31 07:51:00,47.6,33.4,-100.00,East,87,5.0,12.5,59,0.00,,,0.91,WSDL version 423,2013-01-31 12:51:00,
2013-01-31 07:57:00,47.4,32.9,-100.00,ESE,119,7.4,12.5,55,0.00,,,0.91,WSDL version 423,2013-01-31 12:57:00,
2013-01-31 08:03:00,47.4,31.6,-100.00,South,176,4.6,12.5,55,0.00,,,0.91,WSDL version 423,2013-01-31 13:03:00,
2013-01-31 08:09:00,47.3,32.2,-100.00,SE,135,4.8,12.1,57,0.00,,,0.91,WSDL version 423,2013-01-31 13:09:00,
2013-01-31 08:15:00,47.3,32.1,-100.00,SSE,164,4.3,10.7,57,0.00,,,0.91,WSDL version 423,2013-01-31 13:15:00,
2013-01-31 08:21:00,47.1,31.3,-100.00,NNE,13,5.7,15.9,54,0.00,,,0.91,WSDL version 423,2013-01-31 13:21:00,
2013-01-31 08:27:00,46.9,30.3,-100.00,SE,125,5.2,19.5,52,0.00,,,0.91,WSDL version 423,2013-01-31 13:27:00,
2013-01-31 08:33:00,46.6,30.2,-100.00,SSE,158,6.1,19.5,52,0.00,,,0.91,WSDL version 423,2013-01-31 13:33:00,
2013-01-31 08:39:00,46.5,28.9,-100.00,SE,129,8.2,15.2,49,0.00,,,0.91,WSDL version 423,2013-01-31 13:39:00,
2013-01-31 08:45:00,46.2,27.9,-100.00,SSE,151,8.2,21.0,48,0.04,,,0.95,WSDL version 423,2013-01-31 13:45:00,
2013-01-31 08:51:00,46.0,27.9,-100.00,SE,138,9.8,21.0,47,0.04,,,0.95,WSDL version 423,2013-01-31 13:51:00,
2013-01-31 08:57:00,45.7,27.3,-100.00,SSW,211,8.2,19.9,49,0.04,,,0.95,WSDL version 423,2013-01-31 13:57:00,
2013-01-31 09:03:00,45.4,25.8,-100.00,SE,135,10.4,19.7,47,0.04,,,0.95,WSDL version 423,2013-01-31 14:03:00,
2013-01-31 09:09:00,45.2,25.0,-100.00,ESE,119,10.5,23.7,45,0.04,,,0.95,WSDL version 423,2013-01-31 14:09:00,
2013-01-31 09:15:00,45.3,24.8,-100.00,SE,141,8.6,19.7,46,0.04,,,0.95,WSDL version 423,2013-01-31 14:15:00,
2013-01-31 09:21:00,45.5,26.7,-100.00,ESE,122,5.8,18.8,48,0.04,,,0.95,WSDL version 423,2013-01-31 14:21:00,
2013-01-31 09:27:00,45.6,25.8,-100.00,SE,138,7.9,13.2,44,0.04,,,0.95,WSDL version 423,2013-01-31 14:27:00,
2013-01-31 09:33:00,45.9,27.1,-100.00,SSW,205,4.0,14.5,49,0.04,,,0.95,WSDL version 423,2013-01-31 14:33:00,
2013-01-31 09:39:00,46.4,28.2,-100.00,East,101,5.1,12.1,48,0.04,,,0.95,WSDL version 423,2013-01-31 14:39:00,
2013-01-31 09:45:00,46.4,26.6,-100.00,ESE,119,7.6,13.0,46,0.00,,,0.95,WSDL version 423,2013-01-31 14:45:00,
2013-01-31 09:51:00,46.3,25.1,-100.00,SE,143,9.5,17.0,43,0.00,,,0.95,WSDL version 423,2013-01-31 14:51:00,
2013-01-31 09:57:00,46.2,24.1,-100.00,ESE,120,6.4,17.0,42,0.00,,,0.95,WSDL version 423,2013-01-31 14:57:00,
2013-01-31 10:03:00,46.5,25.5,-100.00,SSE,154,6.7,13.2,44,0.00,,,0.95,WSDL version 423,2013-01-31 15:03:00,
2013-01-31 10:09:00,46.4,23.9,-100.00,East,101,8.7,17.4,40,0.00,,,0.95,WSDL version 423,2013-01-31 15:09:00,
2013-01-31 10:15:00,46.1,23.2,-100.00,ESE,110,10.9,19.7,40,0.00,,,0.95,WSDL version 423,2013-01-31 15:15:00,
2013-01-31 10:21:00,46.1,23.5,-100.00,ESE,118,5.0,19.9,42,0.00,,,0.95,WSDL version 423,2013-01-31 15:21:00,
2013-01-31 10:27:00,46.0,23.2,-100.00,ESE,118,7.0,19.9,40,0.00,,,0.95,WSDL version 423,2013-01-31 15:27:00,
2013-01-31 10:33:00,45.6,21.5,-100.00,ESE,113,7.3,17.0,38,0.00,,,0.95,WSDL version 423,2013-01-31 15:33:00,
2013-01-31 10:39:00,45.7,21.8,-100.00,SE,127,9.8,17.0,39,0.00,,,0.95,WSDL version 423,2013-01-31 15:39:00,
2013-01-31 10:45:00,45.7,21.6,-100.00,SE,132,8.0,13.6,39,0.00,,,0.95,WSDL version 423,2013-01-31 15:45:00,
2013-01-31 10:51:00,46.0,22.1,-100.00,SE,135,7.6,15.4,38,0.00,,,0.95,WSDL version 423,2013-01-31 15:51:00,
2013-01-31 10:57:00,46.0,22.2,-100.00,SE,127,5.6,17.4,39,0.00,,,0.95,WSDL version 423,2013-01-31 15:57:00,
2013-01-31 11:03:00,46.5,22.8,-100.00,SE,124,6.7,17.0,40,0.00,,,0.95,WSDL version 423,2013-01-31 16:03:00,
2013-01-31 11:09:00,46.6,22.9,-100.00,East,84,7.3,17.0,37,0.00,,,0.95,WSDL version 423,2013-01-31 16:09:00,
2013-01-31 11:15:00,46.6,22.2,-100.00,East,101,5.6,13.9,38,0.00,,,0.95,WSDL version 423,2013-01-31 16:15:00,
2013-01-31 11:21:00,47.1,23.0,-100.00,ESE,120,7.9,17.0,38,0.00,,,0.95,WSDL version 423,2013-01-31 16:21:00,
2013-01-31 11:27:00,47.1,23.3,-100.00,SSE,149,5.5,17.0,40,0.00,,,0.95,WSDL version 423,2013-01-31 16:27:00,
2013-01-31 11:33:00,47.3,24.0,-100.00,SE,138,7.9,14.8,39,0.00,,,0.95,WSDL version 423,2013-01-31 16:33:00,
2013-01-31 11:39:00,46.9,22.5,-100.00,ESE,113,5.8,15.2,38,0.00,,,0.95,WSDL version 423,2013-01-31 16:39:00,
2013-01-31 11:45:00,46.1,20.5,-100.00,SE,135,9.3,15.2,35,0.00,,,0.95,WSDL version 423,2013-01-31 16:45:00,
2013-01-31 11:51:00,45.3,19.9,-100.00,SE,146,8.8,17.7,37,0.00,,,0.95,WSDL version 423,2013-01-31 16:51:00,
2013-01-31 11:57:00,44.5,19.9,-100.00,SSE,150,7.3,17.7,38,0.00,,,0.95,WSDL version 423,2013-01-31 16:57:00,
2013-01-31 12:03:00,44.6,20.5,-100.00,ESE,108,7.2,16.8,38,0.00,,,0.95,WSDL version 423,2013-01-31 17:03:00,
2013-01-31 12:09:00,44.5,19.9,-100.00,SE,124,9.5,23.7,38,0.00,,,0.95,WSDL version 423,2013-01-31 17:09:00,
2013-01-31 12:15:00,44.1,19.8,-100.00,SE,129,6.9,17.7,38,0.00,,,0.95,WSDL version 423,2013-01-31 17:15:00,
2013-01-31 12:21:00,44.3,20.3,-100.00,SE,129,8.6,17.7,38,0.00,,,0.95,WSDL version 423,2013-01-31 17:21:00,
2013-01-31 12:27:00,44.5,19.8,-100.00,SE,143,7.0,17.7,38,0.00,,,0.95,WSDL version 423,2013-01-31 17:27:00,
2013-01-31 12:33:00,45.1,20.0,-100.00,ESE,119,7.4,17.2,36,0.00,,,0.95,WSDL version 423,2013-01-31 17:33:00,
2013-01-31 12:39:00,45.3,20.1,-100.00,SE,133,6.9,17.7,37,0.00,,,0.95,WSDL version 423,2013-01-31 17:39:00,
2013-01-31 12:45:00,45.5,19.9,-100.00,ENE,73,8.2,14.5,34,0.00,,,0.95,WSDL version 423,2013-01-31 17:45:00,
2013-01-31 12:51:00,45.8,20.7,-100.00,ESE,104,5.7,14.5,37,0.00,,,0.95,WSDL version 423,2013-01-31 17:51:00,
2013-01-31 12:57:00,45.9,20.4,-100.00,East,87,7.1,13.6,36,0.00,,,0.95,WSDL version 423,2013-01-31 17:57:00,
2013-01-31 13:03:00,45.1,18.9,-100.00,ESE,120,13.0,17.4,33,0.00,,,0.95,WSDL version 423,2013-01-31 18:03:00,
2013-01-31 13:09:00,44.7,18.5,-100.00,SSE,148,9.9,21.9,35,0.00,,,0.95,WSDL version 423,2013-01-31 18:09:00,
2013-01-31 13:15:00,44.3,18.0,-100.00,SE,138,7.4,21.9,35,0.00,,,0.95,WSDL version 423,2013-01-31 18:15:00,
2013-01-31 13:21:00,44.4,20.0,-100.00,SE,138,7.4,16.1,36,0.00,,,0.95,WSDL version 423,2013-01-31 18:21:00,
2013-01-31 13:27:00,45.3,20.1,-100.00,ESE,110,4.2,16.1,38,0.00,,,0.95,WSDL version 423,2013-01-31 18:27:00,
2013-01-31 13:33:00,45.5,21.4,-100.00,SSW,193,4.6,10.5,38,0.00,,,0.95,WSDL version 423,2013-01-31 18:33:00,
2013-01-31 13:39:00,45.7,21.6,-100.00,ESE,104,5.1,10.1,38,0.00,,,0.95,WSDL version 423,2013-01-31 18:39:00,
2013-01-31 13:45:00,45.6,21.5,-100.00,ESE,108,5.0,12.3,38,0.00,,,0.95,WSDL version 423,2013-01-31 18:45:00,
2013-01-31 13:51:00,45.6,21.3,-100.00,SE,129,6.4,14.3,37,0.00,,,0.95,WSDL version 423,2013-01-31 18:51:00,
2013-01-31 13:57:00,46.0,21.8,-100.00,SE,127,4.9,15.2,38,0.00,,,0.95,WSDL version 423,2013-01-31 18:57:00,
2013-01-31 14:03:00,46.4,22.2,-100.00,ESE,110,5.0,15.2,38,0.00,,,0.95,WSDL version 423,2013-01-31 19:03:00,
2013-01-31 14:09:00,46.2,21.7,-100.00,SSW,197,7.0,15.4,35,0.00,,,0.95,WSDL version 423,2013-01-31 19:09:00,
2013-01-31 14:15:00,45.8,21.1,-100.00,ESE,118,7.5,17.2,37,0.00,,,0.95,WSDL version 423,2013-01-31 19:15:00,
2013-01-31 14:21:00,45.4,21.2,-100.00,SE,141,6.2,17.2,38,0.00,,,0.95,WSDL version 423,2013-01-31 19:21:00,
2013-01-31 14:27:00,45.2,20.6,-100.00,South,180,7.3,17.0,37,0.00,,,0.95,WSDL version 423,2013-01-31 19:27:00,
2013-01-31 14:33:00,45.1,20.4,-100.00,ESE,105,6.1,17.0,35,0.00,,,0.95,WSDL version 423,2013-01-31 19:33:00,
2013-01-31 14:39:00,44.7,19.9,-100.00,ESE,113,7.2,19.2,35,0.00,,,0.95,WSDL version 423,2013-01-31 19:39:00,
2013-01-31 14:45:00,44.4,19.0,-100.00,ESE,118,4.9,19.2,36,0.00,,,0.95,WSDL version 423,2013-01-31 19:45:00,
2013-01-31 14:51:00,44.2,16.7,-100.00,SE,129,9.1,15.4,32,0.00,,,0.95,WSDL version 423,2013-01-31 19:51:00,
2013-01-31 14:57:00,43.6,15.6,-100.00,ESE,121,8.5,15.4,31,0.00,,,0.95,WSDL version 423,2013-01-31 19:57:00,
2013-01-31 15:03:00,43.1,14.9,-100.00,ESE,115,6.7,17.2,33,0.00,,,0.95,WSDL version 423,2013-01-31 20:03:00,
2013-01-31 15:09:00,43.3,16.8,-100.00,SSE,158,6.9,15.4,34,0.00,,,0.95,WSDL version 423,2013-01-31 20:09:00,
2013-01-31 15:15:00,43.3,17.1,-100.00,SE,132,4.8,15.4,33,0.00,,,0.95,WSDL version 423,2013-01-31 20:15:00,
2013-01-31 15:21:00,43.2,15.9,-100.00,ESE,116,6.9,12.8,33,0.00,,,0.95,WSDL version 423,2013-01-31 20:21:00,
2013-01-31 15:27:00,43.1,16.5,-100.00,ESE,121,3.1,12.8,35,0.00,,,0.95,WSDL version 423,2013-01-31 20:27:00,
2013-01-31 15:33:00,43.0,15.8,-100.00,ESE,113,5.7,12.5,32,0.00,,,0.95,WSDL version 423,2013-01-31 20:33:00,
2013-01-31 15:39:00,42.4,15.2,-100.00,ESE,116,8.9,15.2,33,0.00,,,0.95,WSDL version 423,2013-01-31 20:39:00,
2013-01-31 15:45:00,41.9,14.7,-100.00,SE,143,7.3,15.2,33,0.00,,,0.95,WSDL version 423,2013-01-31 20:45:00,
2013-01-31 15:51:00,41.7,15.3,-100.00,ESE,115,8.1,13.6,33,0.00,,,0.95,WSDL version 423,2013-01-31 20:51:00,
2013-01-31 15:57:00,41.5,15.3,-100.00,ESE,120,5.5,12.5,34,0.00,,,0.95,WSDL version 423,2013-01-31 20:57:00,
2013-01-31 16:03:00,41.4,17.0,-100.00,ESE,118,6.5,15.7,38,0.00,,,0.95,WSDL version 423,2013-01-31 21:03:00,
2013-01-31 16:09:00,40.8,16.2,-100.00,SE,124,7.6,15.7,36,0.00,,,0.95,WSDL version 423,2013-01-31 21:09:00,
2013-01-31 16:15:00,40.4,14.5,-100.00,East,87,9.4,16.8,34,0.00,,,0.95,WSDL version 423,2013-01-31 21:15:00,
2013-01-31 16:21:00,40.1,14.4,-100.00,WSW,253,6.2,16.6,36,0.00,,,0.95,WSDL version 423,2013-01-31 21:21:00,
2013-01-31 16:27:00,39.8,13.9,-100.00,ESE,119,8.0,17.4,35,0.00,,,0.95,WSDL version 423,2013-01-31 21:27:00,
2013-01-31 16:33:00,39.3,13.9,-100.00,SE,124,8.5,17.4,35,0.00,,,0.95,WSDL version 423,2013-01-31 21:33:00,
2013-01-31 16:39:00,38.9,15.7,-100.00,South,186,5.9,14.5,39,0.00,,,0.95,WSDL version 423,2013-01-31 21:39:00,
2013-01-31 16:45:00,38.5,15.7,-100.00,SE,143,8.3,14.3,39,0.00,,,0.95,WSDL version 423,2013-01-31 21:45:00,
2013-01-31 16:51:00,38.1,15.6,-100.00,NW,315,6.7,13.2,40,0.00,,,0.95,WSDL version 423,2013-01-31 21:51:00,
2013-01-31 16:57:00,37.9,15.9,-100.00,ESE,122,7.3,18.6,41,0.00,,,0.95,WSDL version 423,2013-01-31 21:57:00,
2013-01-31 17:03:00,37.8,16.2,-100.00,SE,125,7.9,16.6,41,0.00,,,0.95,WSDL version 423,2013-01-31 22:03:00,
2013-01-31 17:09:00,37.1,15.5,-100.00,ESE,113,4.6,15.7,41,0.00,,,0.95,WSDL version 423,2013-01-31 22:09:00,
2013-01-31 17:15:00,36.5,15.4,-100.00,SSE,148,4.4,17.4,42,0.00,,,0.95,WSDL version 423,2013-01-31 22:15:00,
2013-01-31 17:21:00,36.3,15.4,-100.00,ESE,119,3.9,11.4,42,0.00,,,0.95,WSDL version 423,2013-01-31 22:21:00,
2013-01-31 17:27:00,36.0,15.1,-100.00,ENE,77,5.9,15.2,42,0.00,,,0.95,WSDL version 423,2013-01-31 22:27:00,
2013-01-31 17:33:00,35.8,14.9,-100.00,ESE,116,4.4,11.9,42,0.00,,,0.95,WSDL version 423,2013-01-31 22:33:00,
2013-01-31 17:39:00,35.5,14.5,-100.00,NNE,15,4.1,11.9,42,0.00,,,0.95,WSDL version 423,2013-01-31 22:39:00,
2013-01-31 17:45:00,35.4,14.0,-100.00,SE,141,5.7,11.2,41,0.00,,,0.95,WSDL version 423,2013-01-31 22:45:00,
2013-01-31 17:51:00,35.1,13.3,-100.00,SE,124,5.1,10.1,40,0.00,,,0.95,WSDL version 423,2013-01-31 22:51:00,
2013-01-31 17:57:00,35.0,13.3,-100.00,SE,129,2.9,13.4,41,0.00,,,0.95,WSDL version 423,2013-01-31 22:57:00,
2013-01-31 18:03:00,34.9,13.4,-100.00,South,180,6.3,11.4,41,0.00,,,0.95,WSDL version 423,2013-01-31 23:03:00,
2013-01-31 18:09:00,34.8,13.2,-100.00,North,-999,-999.0,-999.0,40,0.00,,,0.95,WSDL version 423,2013-01-31 23:09:00,
2013-01-31 18:15:00,34.7,13.2,-100.00,ENE,68,7.8,9.6,40,0.00,,,0.95,WSDL version 423,2013-01-31 23:15:00,
2013-01-31 18:21:00,34.6,12.9,-100.00,North,-999,-999.0,-999.0,41,0.00,,,0.95,WSDL version 423,2013-01-31 23:21:00,
2013-01-31 18:27:00,34.5,12.9,-100.00,North,-999,-999.0,-999.0,40,0.00,,,0.95,WSDL version 423,2013-01-31 23:27:00,
2013-01-31 18:33:00,34.3,12.5,-100.00,SE,146,4.6,6.5,40,0.00,,,0.95,WSDL version 423,2013-01-31 23:33:00,
2013-01-31 18:39:00,34.3,13.0,-100.00,ESE,107,3.4,5.6,41,0.00,,,0.95,WSDL version 423,2013-01-31 23:39:00,
2013-01-31 18:45:00,34.1,12.8,-100.00,South,180,4.3,9.2,41,0.00,,,0.95,WSDL version 423,2013-01-31 23:45:00,
2013-01-31 18:51:00,34.1,12.7,-100.00,SE,135,4.3,9.2,41,0.00,,,0.95,WSDL version 423,2013-01-31 23:51:00,
2013-01-31 18:57:00,34.0,12.7,-100.00,SSE,158,4.7,9.6,41,0.00,,,0.95,WSDL version 423,2013-01-31 23:57:00,
2013-01-31 19:03:00,34.0,12.3,-100.00,SE,135,6.7,9.6,40,0.00,,,0.95,WSDL version 423,2013-02-01 00:03:00,
2013-01-31 19:09:00,33.9,12.1,-100.00,North,0,0.0,6.3,40,0.00,,,0.95,WSDL version 423,2013-02-01 00:09:00,
2013-01-31 19:15:00,33.8,12.0,-100.00,North,-999,-999.0,-999.0,40,0.00,,,0.95,WSDL version 423,2013-02-01 00:15:00,
2013-01-31 19:21:00,33.6,12.4,-100.00,NE,45,5.8,7.4,41,0.00,,,0.95,WSDL version 423,2013-02-01 00:21:00,
2013-01-31 19:27:00,33.4,12.3,-100.00,North,-999,-999.0,-999.0,41,0.00,,,0.95,WSDL version 423,2013-02-01 00:27:00,
2013-01-31 19:33:00,33.3,12.4,-100.00,East,90,3.8,7.6,42,0.00,,,0.95,WSDL version 423,2013-02-01 00:33:00,
2013-01-31 19:39:00,33.3,12.6,-100.00,East,96,4.0,7.6,42,0.00,,,0.95,WSDL version 423,2013-02-01 00:39:00,
2013-01-31 19:45:00,33.1,12.5,-100.00,North,-999,-999.0,-999.0,42,0.00,,,0.95,WSDL version 423,2013-02-01 00:45:00,
2013-01-31 19:51:00,32.9,12.6,-100.00,SE,135,2.7,4.0,43,0.00,,,0.95,WSDL version 423,2013-02-01 00:51:00,
2013-01-31 19:57:00,32.9,12.9,-100.00,ESE,113,3.9,5.4,43,0.00,,,0.95,WSDL version 423,2013-02-01 00:57:00,
2013-01-31 20:03:00,33.0,12.9,-100.00,NE,45,6.9,10.3,43,0.00,,,0.95,WSDL version 423,2013-02-01 01:03:00,
2013-01-31 20:09:00,33.2,13.6,-100.00,SE,135,7.2,13.2,45,0.00,,,0.95,WSDL version 423,2013-02-01 01:09:00,
2013-01-31 20:15:00,32.9,14.7,-100.00,SE,135,6.0,13.2,48,0.00,,,0.95,WSDL version 423,2013-02-01 01:15:00,
2013-01-31 20:21:00,32.5,14.8,-100.00,SE,127,4.1,13.9,47,0.00,,,0.95,WSDL version 423,2013-02-01 01:21:00,
2013-01-31 20:27:00,32.0,15.7,-100.00,SE,135,3.5,13.9,48,0.00,,,0.95,WSDL version 423,2013-02-01 01:27:00,
2013-01-31 20:33:00,31.7,16.8,-100.00,ESE,113,5.5,10.3,50,0.00,,,0.95,WSDL version 423,2013-02-01 01:33:00,
2013-01-31 20:39:00,31.4,16.4,-100.00,South,180,3.6,10.3,49,0.00,,,0.95,WSDL version 423,2013-02-01 01:39:00,
2013-01-31 20:45:00,31.2,16.7,-100.00,North,0,0.0,6.3,50,0.00,,,0.95,WSDL version 423,2013-02-01 01:45:00,
2013-01-31 20:51:00,31.1,16.7,-100.00,ESE,113,2.7,9.8,51,0.00,,,0.95,WSDL version 423,2013-02-01 01:51:00,
2013-01-31 20:57:00,30.9,16.7,-100.00,SE,144,4.5,9.8,51,-99.99,,,-99.99,WSDL version 423,2013-02-01 01:57:00,
2013-01-31 21:03:00,30.9,16.6,-100.00,NE,53,2.2,9.8,51,-99.99,,,-99.99,WSDL version 423,2013-02-01 02:03:00,
2013-01-31 21:09:00,30.7,16.5,-100.00,East,94,2.1,7.4,51,0.00,,,0.95,WSDL version 423,2013-02-01 02:09:00,
2013-01-31 21:15:00,30.7,16.5,-100.00,SE,143,2.6,7.4,51,-99.99,,,-99.99,WSDL version 423,2013-02-01 02:15:00,
2013-01-31 21:21:00,30.8,16.3,-100.00,ESE,113,5.0,14.3,50,-99.99,,,-99.99,WSDL version 423,2013-02-01 02:21:00,
2013-01-31 21:27:00,30.9,15.3,-100.00,SE,135,5.3,14.3,47,0.00,,,0.95,WSDL version 423,2013-02-01 02:27:00,
2013-01-31 21:33:00,30.9,14.8,-100.00,North,0,0.0,12.3,46,-99.99,,,-99.99,WSDL version 423,2013-02-01 02:33:00,
2013-01-31 21:39:00,30.8,14.1,-100.00,North,-999,-999.0,-999.0,45,-99.99,,,-99.99,WSDL version 423,2013-02-01 02:39:00,
2013-01-31 21:45:00,30.7,13.0,-100.00,SE,135,3.8,4.0,43,-99.99,,,-99.99,WSDL version 423,2013-02-01 02:45:00,
2013-01-31 21:51:00,30.7,12.1,-100.00,North,360,3.1,4.0,41,-99.99,,,-99.99,WSDL version 423,2013-02-01 02:51:00,
2013-01-31 21:57:00,30.5,12.0,-100.00,North,-999,-999.0,-999.0,41,-99.99,,,-99.99,WSDL version 423,2013-02-01 02:57:00,
2013-01-31 22:03:00,30.4,11.5,-100.00,South,180,6.9,6.9,41,-99.99,,,-99.99,WSDL version 423,2013-02-01 03:03:00,
2013-01-31 22:09:00,30.3,11.8,-100.00,SE,124,7.4,10.1,41,-99.99,,,-99.99,WSDL version 423,2013-02-01 03:09:00,
2013-01-31 22:15:00,30.3,11.4,-100.00,SSE,158,4.8,10.1,41,-99.99,,,-99.99,WSDL version 423,2013-02-01 03:15:00,
2013-01-31 22:21:00,30.2,11.6,-100.00,ESE,108,5.7,8.5,41,-99.99,,,-99.99,WSDL version 423,2013-02-01 03:21:00,
2013-01-31 22:27:00,30.2,11.6,-100.00,SE,141,7.3,12.8,41,-99.99,,,-99.99,WSDL version 423,2013-02-01 03:27:00,
2013-01-31 22:33:00,30.0,11.4,-100.00,SSE,158,6.6,8.9,41,-99.99,,,-99.99,WSDL version 423,2013-02-01 03:33:00,
2013-01-31 22:39:00,30.0,11.2,-100.00,SE,146,6.6,11.4,41,-99.99,,,-99.99,WSDL version 423,2013-02-01 03:39:00,
2013-01-31 22:45:00,30.0,11.4,-100.00,ESE,105,4.3,11.4,41,-99.99,,,-99.99,WSDL version 423,2013-02-01 03:45:00,
2013-01-31 22:51:00,29.8,11.3,-100.00,South,174,6.4,12.1,41,-99.99,,,-99.99,WSDL version 423,2013-02-01 03:51:00,
2013-01-31 22:57:00,29.7,11.0,-100.00,SE,146,5.5,12.1,40,-99.99,,,-99.99,WSDL version 423,2013-02-01 03:57:00,
2013-01-31 23:03:00,29.8,11.1,-100.00,ESE,117,4.1,8.7,41,-99.99,,,-99.99,WSDL version 423,2013-02-01 04:03:00,
2013-01-31 23:09:00,29.6,11.0,-100.00,SE,135,5.5,11.4,41,0.00,,,0.95,WSDL version 423,2013-02-01 04:09:00,
2013-01-31 23:15:00,29.6,11.0,-100.00,SSE,148,3.2,12.1,41,-99.99,,,-99.99,WSDL version 423,2013-02-01 04:15:00,
2013-01-31 23:21:00,29.5,10.9,-100.00,SSE,151,3.2,12.5,41,-99.99,,,-99.99,WSDL version 423,2013-02-01 04:21:00,
2013-01-31 23:27:00,29.5,10.9,-100.00,SE,135,3.1,12.5,41,-99.99,,,-99.99,WSDL version 423,2013-02-01 04:27:00,
2013-01-31 23:33:00,29.3,11.2,-100.00,ESE,113,3.5,11.9,42,-99.99,,,-99.99,WSDL version 423,2013-02-01 04:33:00,
2013-01-31 23:39:00,29.4,10.8,-100.00,ESE,106,4.8,11.9,41,-99.99,,,-99.99,WSDL version 423,2013-02-01 04:39:00,
2013-01-31 23:45:00,29.3,10.8,-100.00,SE,132,3.3,7.8,41,-99.99,,,-99.99,WSDL version 423,2013-02-01 04:45:00,
2013-01-31 23:51:00,29.1,11.0,-100.00,ESE,123,3.5,7.4,42,-99.99,,,-99.99,WSDL version 423,2013-02-01 04:51:00,
2013-01-31 23:57:00,28.9,10.9,-100.00,SE,143,2.6,6.3,42,-99.99,,,-99.99,WSDL version 423,2013-02-01 04:57:00,